createdAt,value
2019-02-28T00:01:04.188Z,99.90
2019-02-28T00:03:44.385Z,99.90
2019-02-28T00:06:24.846Z,99.90
2019-02-28T00:08:53.681Z,99.90
2019-02-28T00:11:42.747Z,99.90
2019-02-28T00:14:30.517Z,99.90
2019-02-28T00:17:18.343Z,99.90
2019-02-28T00:20:07.362Z,99.90
2019-02-28T00:22:55.130Z,99.90
2019-02-28T00:25:42.931Z,99.90
2019-02-28T00:28:30.685Z,99.90
2019-02-28T00:31:18.436Z,99.90
2019-02-28T00:34:06.265Z,99.90
2019-02-28T00:36:54.127Z,99.90
2019-02-28T00:39:41.943Z,99.90
2019-02-28T00:42:29.776Z,99.90
2019-02-28T00:45:17.548Z,99.90
2019-02-28T00:48:05.370Z,99.90
2019-02-28T00:50:53.129Z,99.90
2019-02-28T00:53:40.866Z,99.90
2019-02-28T00:56:21.548Z,99.90
2019-02-28T00:59:02.345Z,99.90
2019-02-28T01:01:45.722Z,99.90
2019-02-28T01:04:25.922Z,99.90
2019-02-28T01:07:06.907Z,99.90
2019-02-28T01:09:47.935Z,99.90
2019-02-28T01:12:28.547Z,99.90
2019-02-28T01:15:10.071Z,99.90
2019-02-28T01:17:50.931Z,99.90
2019-02-28T01:20:32.068Z,99.90
2019-02-28T01:23:12.324Z,99.90
2019-02-28T01:25:53.037Z,99.90
2019-02-28T01:28:33.868Z,99.90
2019-02-28T01:31:14.353Z,99.90
2019-02-28T01:33:56.089Z,99.90
2019-02-28T01:36:37.524Z,99.90
2019-02-28T01:39:18.214Z,99.90
2019-02-28T01:41:59.005Z,99.90
2019-02-28T01:44:39.842Z,99.90
2019-02-28T01:47:21.051Z,99.90
2019-02-28T01:50:01.854Z,99.90
2019-02-28T01:52:45.998Z,99.90
2019-02-28T01:55:24.540Z,99.90
2019-02-28T01:58:05.149Z,99.90
2019-02-28T02:00:46.210Z,99.90
2019-02-28T02:03:27.356Z,99.90
2019-02-28T02:06:08.141Z,99.90
2019-02-28T02:08:49.191Z,99.90
2019-02-28T02:11:29.916Z,99.90
2019-02-28T02:14:11.089Z,99.90
2019-02-28T02:16:52.178Z,99.90
2019-02-28T02:19:33.134Z,99.90
2019-02-28T02:22:13.863Z,99.90
2019-02-28T02:24:54.867Z,99.90
2019-02-28T02:27:35.162Z,99.90
2019-02-28T02:30:16.266Z,99.90
2019-02-28T02:32:56.531Z,99.90
2019-02-28T02:35:42.178Z,99.90
2019-02-28T02:38:17.605Z,99.90
2019-02-28T02:41:05.362Z,99.90
2019-02-28T02:43:54.848Z,99.90
2019-02-28T02:46:44.869Z,99.90
2019-02-28T02:49:32.627Z,99.90
2019-02-28T02:52:25.898Z,99.90
2019-02-28T02:55:09.949Z,99.90
2019-02-28T03:00:32.455Z,99.90
2019-02-28T03:03:13.394Z,99.90
2019-02-28T03:05:54.079Z,99.90
2019-02-28T03:08:36.382Z,99.90
2019-02-28T03:11:18.036Z,99.90
2019-02-28T03:13:58.249Z,99.90
2019-02-28T03:16:38.704Z,99.90
2019-02-28T03:19:19.210Z,99.90
2019-02-28T03:21:59.878Z,99.90
2019-02-28T03:24:40.256Z,99.90
2019-02-28T03:27:20.896Z,99.90
2019-02-28T03:30:01.798Z,99.90
2019-02-28T03:32:42.943Z,99.90
2019-02-28T03:35:24.109Z,99.90
2019-02-28T03:38:10.604Z,99.90
2019-02-28T03:40:47.933Z,99.90
2019-02-28T03:43:28.884Z,99.90
2019-02-28T03:46:10.171Z,99.90
2019-02-28T03:48:52.471Z,99.90
2019-02-28T03:51:33.362Z,99.90
2019-02-28T03:54:13.980Z,99.90
2019-02-28T03:56:54.500Z,99.90
2019-02-28T03:59:35.251Z,99.90
2019-02-28T04:02:21.086Z,99.90
2019-02-28T04:04:58.446Z,99.90
2019-02-28T04:07:39.239Z,99.90
2019-02-28T04:10:21.992Z,99.90
2019-02-28T04:13:01.886Z,99.90
2019-02-28T04:15:49.807Z,99.90
2019-02-28T04:18:25.224Z,99.90
2019-02-28T04:21:10.210Z,99.90
2019-02-28T04:23:37.016Z,99.90
2019-02-28T04:26:29.836Z,99.90
2019-02-28T04:29:15.020Z,99.90
2019-02-28T04:32:02.766Z,99.90
2019-02-28T04:34:50.512Z,99.90
2019-02-28T04:37:18.925Z,99.90
2019-02-28T04:40:27.717Z,99.90
2019-02-28T04:43:16.871Z,99.90
2019-02-28T04:46:04.620Z,99.90
2019-02-28T04:48:52.364Z,99.90
2019-02-28T04:51:40.941Z,99.90
2019-02-28T04:54:29.584Z,99.90
2019-02-28T04:57:09.843Z,99.90
2019-02-28T04:59:50.550Z,99.90
2019-02-28T05:02:31.405Z,99.90
2019-02-28T05:05:13.617Z,99.90
2019-02-28T05:07:54.124Z,99.90
2019-02-28T05:10:36.429Z,99.90
2019-02-28T05:13:17.438Z,99.90
2019-02-28T05:15:58.262Z,99.90
2019-02-28T05:18:38.987Z,99.90
2019-02-28T05:21:20.229Z,99.90
2019-02-28T05:24:00.656Z,99.90
2019-02-28T05:26:41.311Z,99.90
2019-02-28T05:29:22.015Z,99.90
2019-02-28T05:32:02.557Z,99.90
2019-02-28T05:34:43.600Z,99.90
2019-02-28T05:37:24.264Z,99.90
2019-02-28T05:40:06.114Z,99.90
2019-02-28T05:42:47.652Z,99.90
2019-02-28T05:45:28.574Z,99.90
2019-02-28T05:48:09.665Z,99.90
2019-02-28T05:50:53.237Z,99.90
2019-02-28T05:53:32.952Z,99.90
2019-02-28T05:56:11.668Z,99.90
2019-02-28T05:58:52.507Z,99.90
2019-02-28T06:01:33.576Z,99.90
2019-02-28T06:04:14.133Z,99.90
2019-02-28T06:06:55.591Z,99.90
2019-02-28T06:09:35.802Z,99.90
2019-02-28T06:12:16.342Z,99.90
2019-02-28T06:15:02.184Z,99.90
2019-02-28T06:17:39.234Z,99.90
2019-02-28T06:20:19.688Z,99.90
2019-02-28T06:23:00.061Z,99.90
2019-02-28T06:25:40.806Z,99.90
2019-02-28T06:28:21.678Z,99.90
2019-02-28T06:31:02.809Z,99.90
2019-02-28T06:33:43.756Z,99.90
2019-02-28T06:36:28.691Z,99.90
2019-02-28T06:39:07.172Z,99.90
2019-02-28T06:41:48.249Z,99.90
2019-02-28T06:44:29.000Z,99.90
2019-02-28T06:47:11.328Z,99.90
2019-02-28T06:49:52.784Z,99.90
2019-02-28T06:52:33.515Z,99.90
2019-02-28T06:55:18.454Z,99.90
2019-02-28T06:57:59.124Z,99.90
2019-02-28T07:00:40.770Z,99.90
2019-02-28T07:03:21.778Z,99.90
2019-02-28T07:06:02.708Z,99.90
2019-02-28T07:08:43.234Z,99.90
2019-02-28T07:11:23.953Z,99.90
2019-02-28T07:14:04.888Z,99.90
2019-02-28T07:16:45.657Z,99.90
2019-02-28T07:19:26.397Z,99.90
2019-02-28T07:22:07.616Z,99.90
2019-02-28T07:24:48.428Z,99.90
2019-02-28T07:27:29.840Z,99.90
2019-02-28T07:30:14.324Z,99.90
2019-02-28T07:32:53.428Z,99.90
2019-02-28T07:35:36.747Z,99.90
2019-02-28T07:38:16.688Z,99.90
2019-02-28T07:40:57.073Z,99.90
2019-02-28T07:43:37.984Z,99.90
2019-02-28T07:46:19.180Z,99.90
2019-02-28T07:49:00.908Z,99.90
2019-02-28T07:51:42.613Z,99.90
2019-02-28T07:54:23.711Z,99.90
2019-02-28T07:57:04.089Z,99.90
2019-02-28T07:59:44.972Z,99.90
2019-02-28T08:02:25.279Z,99.90
2019-02-28T08:05:05.958Z,99.90
2019-02-28T08:07:52.040Z,99.90
2019-02-28T08:10:29.505Z,99.90
2019-02-28T08:13:10.320Z,99.90
2019-02-28T08:15:53.308Z,99.90
2019-02-28T08:18:33.311Z,99.90
2019-02-28T08:21:13.613Z,99.90
2019-02-28T08:23:54.658Z,99.90
2019-02-28T08:26:35.445Z,99.90
2019-02-28T08:29:16.124Z,99.70
2019-02-28T08:31:57.538Z,99.50
2019-02-28T08:34:38.708Z,99.00
2019-02-28T08:37:20.204Z,98.60
2019-02-28T08:40:01.945Z,96.50
2019-02-28T08:42:42.980Z,95.20
2019-02-28T08:45:23.698Z,93.50
2019-02-28T08:48:04.500Z,92.20
2019-02-28T08:50:45.327Z,92.50
2019-02-28T08:56:11.017Z,91.70
2019-02-28T08:58:50.069Z,90.20
2019-02-28T09:01:30.472Z,91.40
2019-02-28T09:04:11.295Z,86.40
2019-02-28T09:06:55.389Z,87.00
2019-02-28T09:09:36.337Z,85.10
2019-02-28T09:12:16.824Z,83.00
2019-02-28T09:14:57.705Z,82.00
2019-02-28T09:17:38.651Z,78.10
2019-02-28T09:20:19.130Z,78.10
2019-02-28T09:23:02.373Z,77.20
2019-02-28T09:25:42.265Z,76.00
2019-02-28T09:28:22.972Z,75.60
2019-02-28T09:31:05.118Z,77.30
2019-02-28T09:33:46.068Z,77.40
2019-02-28T09:36:26.501Z,73.80
2019-02-28T09:39:07.556Z,74.40
2019-02-28T09:41:48.419Z,73.40
2019-02-28T09:44:31.458Z,73.40
2019-02-28T09:47:11.843Z,71.70
2019-02-28T09:49:52.535Z,67.00
2019-02-28T09:52:33.320Z,67.80
2019-02-28T09:55:35.519Z,68.20
2019-02-28T09:58:15.945Z,65.80
2019-02-28T10:00:56.906Z,65.10
2019-02-28T10:03:37.490Z,68.80
2019-02-28T10:06:18.476Z,62.70
2019-02-28T10:09:00.125Z,60.60
2019-02-28T10:11:41.924Z,61.00
2019-02-28T10:14:25.564Z,60.60
2019-02-28T10:17:05.568Z,58.30
2019-02-28T10:19:49.178Z,58.00
2019-02-28T10:22:29.242Z,60.50
2019-02-28T10:25:12.279Z,57.30
2019-02-28T10:28:01.717Z,58.80
2019-02-28T10:30:37.958Z,55.60
2019-02-28T10:33:18.812Z,57.40
2019-02-28T10:35:59.957Z,56.20
2019-02-28T10:38:40.640Z,55.40
2019-02-28T10:41:24.192Z,56.60
2019-02-28T10:44:04.187Z,57.10
2019-02-28T10:46:44.815Z,58.00
2019-02-28T10:49:26.021Z,58.10
2019-02-28T10:52:06.488Z,57.60
2019-02-28T10:54:48.657Z,57.80
2019-02-28T10:57:30.170Z,59.40
2019-02-28T11:00:11.148Z,59.10
2019-02-28T11:02:53.755Z,59.20
2019-02-28T11:05:34.682Z,59.90
2019-02-28T11:08:18.338Z,58.90
2019-02-28T11:10:58.105Z,57.60
2019-02-28T11:13:39.088Z,58.30
2019-02-28T11:16:20.513Z,59.00
2019-02-28T11:21:44.677Z,55.80
2019-02-28T11:24:27.060Z,54.30
2019-02-28T11:27:08.102Z,55.70
2019-02-28T11:29:48.569Z,55.60
2019-02-28T11:32:29.418Z,56.20
2019-02-28T11:35:11.102Z,55.30
2019-02-28T11:37:52.237Z,54.70
2019-02-28T11:40:32.986Z,55.20
2019-02-28T11:43:13.801Z,53.00
2019-02-28T11:45:56.497Z,53.60
2019-02-28T11:48:37.593Z,53.90
2019-02-28T11:54:00.547Z,54.30
2019-02-28T11:56:41.556Z,53.40
2019-02-28T11:59:24.231Z,53.80
2019-02-28T12:02:04.780Z,52.80
2019-02-28T12:04:45.697Z,52.50
2019-02-28T12:07:25.890Z,52.60
2019-02-28T12:10:06.813Z,52.90
2019-02-28T12:12:48.566Z,53.50
2019-02-28T12:15:28.818Z,52.40
2019-02-28T12:18:09.582Z,52.60
2019-02-28T12:20:50.628Z,53.10
2019-02-28T12:23:31.596Z,54.10
2019-02-28T12:26:14.400Z,53.80
2019-02-28T12:28:55.255Z,53.80
2019-02-28T12:31:36.581Z,53.90
2019-02-28T12:36:59.967Z,54.70
2019-02-28T12:39:40.459Z,53.40
2019-02-28T12:42:21.013Z,53.80
2019-02-28T12:45:01.339Z,53.10
2019-02-28T12:47:42.306Z,52.40
2019-02-28T12:50:23.368Z,52.20
2019-02-28T12:53:04.136Z,54.20
2019-02-28T12:55:35.541Z,52.70
2019-02-28T12:58:22.052Z,54.10
2019-02-28T13:01:09.875Z,55.20
2019-02-28T13:04:00.617Z,53.50
2019-02-28T13:06:47.128Z,53.30
2019-02-28T13:09:34.899Z,53.10
2019-02-28T13:12:22.665Z,53.80
2019-02-28T13:15:31.148Z,53.00
2019-02-28T13:18:18.917Z,53.10
2019-02-28T13:21:10.604Z,53.10
2019-02-28T13:23:56.156Z,52.60
2019-02-28T13:26:44.005Z,53.60
2019-02-28T13:29:32.400Z,52.90
2019-02-28T13:32:21.241Z,53.10
2019-02-28T13:35:29.711Z,52.10
2019-02-28T13:38:19.125Z,53.30
2019-02-28T13:41:06.999Z,52.10
2019-02-28T13:43:59.228Z,53.10
2019-02-28T13:46:44.307Z,52.80
2019-02-28T13:49:32.077Z,53.50
2019-02-28T13:52:20.776Z,53.10
2019-02-28T13:55:14.315Z,53.10
2019-02-28T13:57:54.872Z,52.40
2019-02-28T14:00:35.566Z,51.70
2019-02-28T14:03:17.236Z,51.60
2019-02-28T14:05:57.971Z,52.80
2019-02-28T14:08:38.982Z,51.90
2019-02-28T14:11:20.080Z,51.60
2019-02-28T14:14:00.634Z,52.00
2019-02-28T14:16:41.631Z,52.00
2019-02-28T14:19:22.753Z,52.70
2019-02-28T14:22:03.884Z,52.40
2019-02-28T14:24:44.500Z,53.60
2019-02-28T14:27:26.255Z,52.60
2019-02-28T14:30:07.076Z,53.50
2019-02-28T14:32:47.852Z,52.80
2019-02-28T14:35:33.912Z,53.10
2019-02-28T14:38:11.016Z,53.00
2019-02-28T14:40:52.875Z,53.90
2019-02-28T14:43:34.517Z,52.60
2019-02-28T14:46:18.285Z,53.00
2019-02-28T14:48:58.235Z,53.00
2019-02-28T14:51:39.080Z,53.10
2019-02-28T14:54:21.883Z,53.70
2019-02-28T14:57:02.161Z,53.30
2019-02-28T14:59:43.187Z,54.20
2019-02-28T15:02:27.867Z,53.90
2019-02-28T15:05:06.021Z,54.30
2019-02-28T15:07:46.973Z,54.90
2019-02-28T15:10:27.504Z,54.90
2019-02-28T15:13:08.096Z,55.20
2019-02-28T15:15:49.438Z,55.10
2019-02-28T15:18:31.420Z,55.10
2019-02-28T15:21:11.655Z,56.90
2019-02-28T15:23:52.480Z,57.00
2019-02-28T15:26:33.421Z,56.50
2019-02-28T15:29:13.674Z,57.40
2019-02-28T15:31:54.232Z,56.30
2019-02-28T15:34:37.516Z,57.00
2019-02-28T15:37:17.113Z,56.80
2019-02-28T15:39:58.877Z,56.60
2019-02-28T15:42:42.908Z,56.60
2019-02-28T15:45:23.071Z,56.80
2019-02-28T15:48:03.383Z,56.90
2019-02-28T15:50:43.778Z,57.10
2019-02-28T15:53:24.441Z,57.40
2019-02-28T15:56:13.066Z,57.50
2019-02-28T15:58:47.305Z,57.50
2019-02-28T16:01:28.594Z,58.30
2019-02-28T16:04:13.031Z,57.20
2019-02-28T16:06:41.503Z,57.50
2019-02-28T16:09:29.261Z,57.80
2019-02-28T16:11:57.673Z,57.90
2019-02-28T16:14:26.090Z,57.30
2019-02-28T16:19:48.320Z,58.10
2019-02-28T16:22:36.152Z,57.80
2019-02-28T16:25:46.920Z,58.80
2019-02-28T16:28:14.792Z,58.00
2019-02-28T16:31:03.294Z,57.90
2019-02-28T16:33:52.027Z,59.10
2019-02-28T16:36:39.992Z,59.00
2019-02-28T16:39:27.752Z,58.60
2019-02-28T16:42:17.424Z,59.50
2019-02-28T16:45:25.718Z,59.50
2019-02-28T16:48:13.484Z,59.80
2019-02-28T16:54:08.100Z,61.50
2019-02-28T16:56:55.852Z,61.90
2019-02-28T16:59:36.485Z,62.80
2019-02-28T17:02:17.396Z,64.00
2019-02-28T17:04:59.647Z,64.90
2019-02-28T17:07:43.583Z,65.50
2019-02-28T17:10:45.528Z,68.30
2019-02-28T17:13:27.481Z,69.00
2019-02-28T17:16:12.672Z,69.90
2019-02-28T17:18:56.563Z,71.20
2019-02-28T17:21:36.123Z,73.50
2019-02-28T17:24:14.783Z,75.10
2019-02-28T17:30:01.818Z,76.80
2019-02-28T17:32:51.002Z,78.50
2019-02-28T17:35:38.769Z,79.40
2019-02-28T17:38:26.517Z,81.30
2019-02-28T17:41:14.282Z,81.40
2019-02-28T17:44:21.344Z,83.90
2019-02-28T17:47:28.431Z,84.30
2019-02-28T17:50:35.660Z,85.30
2019-02-28T17:53:24.960Z,86.70
2019-02-28T17:56:33.449Z,86.70
2019-02-28T17:59:14.073Z,89.00
2019-02-28T18:01:54.929Z,90.60
2019-02-28T18:04:35.915Z,91.90
2019-02-28T18:07:16.148Z,91.50
2019-02-28T18:09:56.966Z,92.60
2019-02-28T18:12:37.285Z,92.90
2019-02-28T18:15:18.173Z,93.00
2019-02-28T18:17:58.392Z,94.00
2019-02-28T18:20:38.947Z,94.60
2019-02-28T18:23:21.129Z,95.20
2019-02-28T18:26:01.762Z,95.90
2019-02-28T18:28:42.528Z,96.00
2019-02-28T18:31:23.160Z,96.50
2019-02-28T18:34:03.987Z,96.70
2019-02-28T18:36:44.682Z,97.40
2019-02-28T18:39:25.736Z,98.10
2019-02-28T18:42:06.202Z,98.60
2019-02-28T18:44:47.033Z,99.20
2019-02-28T18:47:28.057Z,99.60
2019-02-28T18:50:08.902Z,99.90
2019-02-28T18:52:49.792Z,99.90
2019-02-28T18:55:34.897Z,99.90
2019-02-28T18:58:10.900Z,99.90
2019-02-28T19:00:51.227Z,99.90
2019-02-28T19:03:32.071Z,99.90
2019-02-28T19:06:12.293Z,99.90
2019-02-28T19:08:52.862Z,99.90
2019-02-28T19:11:33.451Z,99.90
2019-02-28T19:14:13.996Z,99.90
2019-02-28T19:16:54.633Z,99.90
2019-02-28T19:19:35.561Z,99.90
2019-02-28T19:22:15.769Z,99.90
2019-02-28T19:24:56.712Z,99.90
2019-02-28T19:27:37.305Z,99.90
2019-02-28T19:30:17.788Z,99.90
2019-02-28T19:32:58.758Z,99.90
2019-02-28T19:35:39.585Z,99.90
2019-02-28T19:38:20.313Z,99.90
2019-02-28T19:41:01.322Z,99.90
2019-02-28T19:43:42.421Z,99.90
2019-02-28T19:46:23.092Z,99.90
2019-02-28T19:49:04.150Z,99.90
2019-02-28T19:51:44.482Z,99.90
2019-02-28T19:54:24.913Z,99.90
2019-02-28T19:57:05.705Z,99.90
2019-02-28T19:59:47.309Z,99.90
2019-02-28T20:02:27.846Z,99.90
2019-02-28T20:05:08.884Z,99.90
2019-02-28T20:07:58.347Z,99.90
2019-02-28T20:10:47.174Z,99.90
2019-02-28T20:13:35.649Z,99.90
2019-02-28T20:16:23.398Z,99.90
2019-02-28T20:19:11.335Z,99.90
2019-02-28T20:21:59.156Z,99.90
2019-02-28T20:24:46.937Z,99.90
2019-02-28T20:27:34.692Z,99.90
2019-02-28T20:33:17.713Z,99.90
2019-02-28T20:36:05.555Z,99.90
2019-02-28T20:38:53.330Z,99.90
2019-02-28T20:41:41.110Z,99.90
2019-02-28T20:44:28.884Z,99.90
2019-02-28T20:47:16.641Z,99.90
2019-02-28T20:50:23.729Z,99.90
2019-02-28T20:53:11.500Z,99.90
2019-02-28T20:56:00.952Z,99.90
2019-02-28T20:58:48.752Z,99.90
2019-02-28T21:01:36.514Z,99.90
2019-02-28T21:04:24.290Z,99.90
2019-02-28T21:07:05.272Z,99.90
2019-02-28T21:09:46.073Z,99.90
2019-02-28T21:12:26.705Z,99.90
2019-02-28T21:15:07.756Z,99.90
2019-02-28T21:17:48.474Z,99.90
2019-02-28T21:20:29.089Z,99.90
2019-02-28T21:23:09.673Z,99.90
2019-02-28T21:25:50.881Z,99.90
2019-02-28T21:28:32.000Z,99.90
2019-02-28T21:31:12.676Z,99.90
2019-02-28T21:33:53.708Z,99.90
2019-02-28T21:36:34.471Z,99.90
2019-02-28T21:39:15.112Z,99.90
2019-02-28T21:41:55.960Z,99.90
2019-02-28T21:44:36.552Z,99.90
2019-02-28T21:47:17.297Z,99.90
2019-02-28T21:49:58.243Z,99.90
2019-02-28T21:52:39.197Z,99.90
2019-02-28T21:55:19.900Z,99.90
2019-02-28T21:58:00.613Z,99.90
2019-02-28T22:00:41.665Z,99.90
2019-02-28T22:03:22.161Z,99.90
2019-02-28T22:06:03.260Z,99.90
2019-02-28T22:08:44.059Z,99.90
2019-02-28T22:11:24.907Z,99.90
2019-02-28T22:14:05.742Z,99.90
2019-02-28T22:16:46.682Z,99.90
2019-02-28T22:19:27.507Z,99.90
2019-02-28T22:22:08.133Z,99.90
2019-02-28T22:24:48.661Z,99.90
2019-02-28T22:27:29.561Z,99.90
2019-02-28T22:30:29.443Z,99.90
2019-02-28T22:36:08.732Z,99.90
2019-02-28T22:38:49.678Z,99.90
2019-02-28T22:41:30.309Z,99.90
2019-02-28T22:44:11.046Z,99.90
2019-02-28T22:46:51.718Z,99.90
2019-02-28T22:49:33.677Z,99.90
2019-02-28T22:52:13.906Z,99.90
2019-02-28T22:54:54.808Z,99.90
2019-02-28T22:57:35.323Z,99.90
2019-02-28T23:00:16.084Z,99.90
2019-02-28T23:02:56.589Z,99.90
2019-02-28T23:05:37.035Z,99.90
2019-02-28T23:08:18.058Z,99.90
2019-02-28T23:10:58.881Z,99.90
2019-02-28T23:13:39.575Z,99.90
2019-02-28T23:16:20.422Z,99.90
2019-02-28T23:19:01.526Z,99.90
2019-02-28T23:21:40.256Z,99.90
2019-02-28T23:24:28.007Z,99.90
2019-02-28T23:27:16.533Z,99.90
2019-02-28T23:30:23.617Z,99.90
2019-02-28T23:33:11.446Z,99.90
2019-02-28T23:35:59.200Z,99.90
2019-02-28T23:38:47.027Z,99.90
2019-02-28T23:41:34.804Z,99.90
2019-02-28T23:44:22.560Z,99.90
2019-02-28T23:47:10.381Z,99.90
2019-02-28T23:49:58.136Z,99.90
2019-02-28T23:52:45.890Z,99.90
2019-02-28T23:55:33.645Z,99.90
2019-02-28T23:58:21.408Z,99.90
